sensor_id;sensor_type;location;lat;lon;timestamp;pressure;altitude;pressure_sealevel;temperature;humidity
10348;BME280;5220;43.192;23.284;2023-07-24T00:01:34;97099.13;;;23.00;80.73
10348;BME280;5220;43.192;23.284;2023-07-24T00:04:01;97104.81;;;22.97;81.07
10348;BME280;5220;43.192;23.284;2023-07-24T00:06:27;97091.91;;;22.94;79.18
10348;BME280;5220;43.192;23.284;2023-07-24T00:08:55;97088.91;;;22.97;79.07
10348;BME280;5220;43.192;23.284;2023-07-24T00:11:22;97091.72;;;22.96;78.06
10348;BME280;5220;43.192;23.284;2023-07-24T00:13:49;97092.47;;;22.90;76.37
10348;BME280;5220;43.192;23.284;2023-07-24T00:16:15;97094.75;;;22.93;74.94
10348;BME280;5220;43.192;23.284;2023-07-24T00:18:42;97096.22;;;22.81;74.05
10348;BME280;5220;43.192;23.284;2023-07-24T00:21:09;97094.41;;;22.81;76.24
10348;BME280;5220;43.192;23.284;2023-07-24T00:23:38;97082.03;;;22.74;75.36
10348;BME280;5220;43.192;23.284;2023-07-24T00:26:06;97085.53;;;22.74;77.96
10348;BME280;5220;43.192;23.284;2023-07-24T00:28:33;97085.00;;;22.79;76.67
10348;BME280;5220;43.192;23.284;2023-07-24T00:31:00;97086.53;;;22.73;74.40
10348;BME280;5220;43.192;23.284;2023-07-24T00:33:26;97086.63;;;22.65;72.47
10348;BME280;5220;43.192;23.284;2023-07-24T00:35:55;97084.59;;;22.67;73.17
10348;BME280;5220;43.192;23.284;2023-07-24T00:38:22;97082.16;;;22.66;73.05
10348;BME280;5220;43.192;23.284;2023-07-24T00:40:49;97091.81;;;22.73;74.48
10348;BME280;5220;43.192;23.284;2023-07-24T00:43:17;97090.75;;;22.68;77.44
10348;BME280;5220;43.192;23.284;2023-07-24T00:45:45;97082.41;;;22.71;86.15
10348;BME280;5220;43.192;23.284;2023-07-24T00:48:13;97090.38;;;22.71;90.15
10348;BME280;5220;43.192;23.284;2023-07-24T00:50:42;97089.75;;;22.69;91.67
10348;BME280;5220;43.192;23.284;2023-07-24T00:53:10;97087.91;;;22.69;90.91
10348;BME280;5220;43.192;23.284;2023-07-24T00:55:38;97096.25;;;22.66;95.92
10348;BME280;5220;43.192;23.284;2023-07-24T00:58:05;97092.28;;;22.62;92.81
10348;BME280;5220;43.192;23.284;2023-07-24T01:00:33;97089.72;;;22.54;94.33
10348;BME280;5220;43.192;23.284;2023-07-24T01:03:00;97086.63;;;22.50;88.67
10348;BME280;5220;43.192;23.284;2023-07-24T01:05:26;97075.34;;;22.48;92.09
10348;BME280;5220;43.192;23.284;2023-07-24T01:07:53;97085.13;;;22.48;90.14
10348;BME280;5220;43.192;23.284;2023-07-24T01:10:20;97079.66;;;22.35;91.96
10348;BME280;5220;43.192;23.284;2023-07-24T01:12:53;97083.66;;;22.31;88.58
10348;BME280;5220;43.192;23.284;2023-07-24T01:15:28;97074.25;;;22.28;86.49
10348;BME280;5220;43.192;23.284;2023-07-24T01:17:59;97079.72;;;22.27;86.56
10348;BME280;5220;43.192;23.284;2023-07-24T01:20:29;97073.59;;;22.26;83.45
10348;BME280;5220;43.192;23.284;2023-07-24T01:23:09;97074.44;;;22.27;84.69
10348;BME280;5220;43.192;23.284;2023-07-24T01:25:51;97075.63;;;22.24;83.70
10348;BME280;5220;43.192;23.284;2023-07-24T01:28:19;97079.19;;;22.17;86.14
10348;BME280;5220;43.192;23.284;2023-07-24T01:30:46;97080.06;;;21.94;84.95
10348;BME280;5220;43.192;23.284;2023-07-24T01:33:13;97081.47;;;21.82;88.38
10348;BME280;5220;43.192;23.284;2023-07-24T01:35:41;97081.41;;;21.90;87.30
10348;BME280;5220;43.192;23.284;2023-07-24T01:38:09;97079.69;;;21.98;85.70
10348;BME280;5220;43.192;23.284;2023-07-24T01:40:38;97070.94;;;21.97;83.08
10348;BME280;5220;43.192;23.284;2023-07-24T01:43:06;97070.94;;;21.97;83.75
10348;BME280;5220;43.192;23.284;2023-07-24T01:45:33;97077.88;;;21.98;84.19
10348;BME280;5220;43.192;23.284;2023-07-24T01:48:03;97077.31;;;22.03;80.67
10348;BME280;5220;43.192;23.284;2023-07-24T01:50:30;97076.97;;;22.06;81.90
10348;BME280;5220;43.192;23.284;2023-07-24T01:52:57;97072.91;;;21.95;83.14
10348;BME280;5220;43.192;23.284;2023-07-24T01:55:24;97060.59;;;22.02;86.33
10348;BME280;5220;43.192;23.284;2023-07-24T01:57:51;97063.69;;;21.91;89.56
10348;BME280;5220;43.192;23.284;2023-07-24T02:00:19;97055.75;;;21.91;87.31
10348;BME280;5220;43.192;23.284;2023-07-24T02:02:46;97063.19;;;21.87;87.29
10348;BME280;5220;43.192;23.284;2023-07-24T02:05:12;97065.22;;;21.85;85.44
10348;BME280;5220;43.192;23.284;2023-07-24T02:07:39;97057.91;;;21.87;87.02
10348;BME280;5220;43.192;23.284;2023-07-24T02:10:07;97058.25;;;21.84;87.12
10348;BME280;5220;43.192;23.284;2023-07-24T02:12:34;97053.44;;;21.88;86.73
10348;BME280;5220;43.192;23.284;2023-07-24T02:15:01;97054.31;;;21.80;86.22
10348;BME280;5220;43.192;23.284;2023-07-24T02:17:29;97064.75;;;21.82;86.52
10348;BME280;5220;43.192;23.284;2023-07-24T02:19:56;97060.09;;;21.84;84.32
10348;BME280;5220;43.192;23.284;2023-07-24T02:22:23;97051.31;;;21.83;85.50
10348;BME280;5220;43.192;23.284;2023-07-24T02:24:50;97054.63;;;21.85;89.24
10348;BME280;5220;43.192;23.284;2023-07-24T02:27:25;97061.28;;;21.81;87.50
10348;BME280;5220;43.192;23.284;2023-07-24T02:29:52;97057.78;;;21.81;89.50
10348;BME280;5220;43.192;23.284;2023-07-24T02:32:19;97060.78;;;21.78;89.97
10348;BME280;5220;43.192;23.284;2023-07-24T02:34:48;97059.50;;;21.74;92.84
10348;BME280;5220;43.192;23.284;2023-07-24T02:37:15;97064.63;;;21.75;91.25
10348;BME280;5220;43.192;23.284;2023-07-24T02:39:42;97060.22;;;21.68;85.12
10348;BME280;5220;43.192;23.284;2023-07-24T02:42:08;97065.59;;;21.60;86.69
10348;BME280;5220;43.192;23.284;2023-07-24T02:44:35;97063.28;;;21.57;88.67
10348;BME280;5220;43.192;23.284;2023-07-24T02:47:02;97070.88;;;21.60;90.60
10348;BME280;5220;43.192;23.284;2023-07-24T02:49:29;97064.66;;;21.53;90.77
10348;BME280;5220;43.192;23.284;2023-07-24T02:51:57;97074.41;;;21.52;90.84
10348;BME280;5220;43.192;23.284;2023-07-24T02:54:25;97075.06;;;21.54;89.60
10348;BME280;5220;43.192;23.284;2023-07-24T02:56:52;97080.81;;;21.58;90.57
10348;BME280;5220;43.192;23.284;2023-07-24T02:59:18;97072.06;;;21.57;95.46
10348;BME280;5220;43.192;23.284;2023-07-24T03:01:45;97077.16;;;21.59;100.00
10348;BME280;5220;43.192;23.284;2023-07-24T03:04:12;97075.72;;;21.56;95.79
10348;BME280;5220;43.192;23.284;2023-07-24T03:06:39;97071.72;;;21.37;96.92
10348;BME280;5220;43.192;23.284;2023-07-24T03:09:07;97068.47;;;21.50;94.21
10348;BME280;5220;43.192;23.284;2023-07-24T03:11:33;97063.13;;;21.35;91.97
10348;BME280;5220;43.192;23.284;2023-07-24T03:14:00;97064.88;;;21.43;92.68
10348;BME280;5220;43.192;23.284;2023-07-24T03:16:27;97057.53;;;21.53;94.31
10348;BME280;5220;43.192;23.284;2023-07-24T03:18:53;97076.53;;;21.57;94.96
10348;BME280;5220;43.192;23.284;2023-07-24T03:21:20;97069.91;;;21.61;93.04
10348;BME280;5220;43.192;23.284;2023-07-24T03:23:47;97062.59;;;21.63;98.22
10348;BME280;5220;43.192;23.284;2023-07-24T03:26:15;97064.25;;;21.64;94.56
10348;BME280;5220;43.192;23.284;2023-07-24T03:28:42;97065.94;;;21.57;98.25
10348;BME280;5220;43.192;23.284;2023-07-24T03:31:09;97081.63;;;21.13;100.00
10348;BME280;5220;43.192;23.284;2023-07-24T03:33:35;97077.09;;;21.21;100.00
10348;BME280;5220;43.192;23.284;2023-07-24T03:36:02;97082.06;;;21.47;99.71
10348;BME280;5220;43.192;23.284;2023-07-24T03:38:30;97074.34;;;21.60;100.00
10348;BME280;5220;43.192;23.284;2023-07-24T03:40:56;97071.00;;;21.66;100.00
10348;BME280;5220;43.192;23.284;2023-07-24T03:43:24;97075.22;;;21.75;100.00
10348;BME280;5220;43.192;23.284;2023-07-24T03:45:51;97079.09;;;21.65;100.00
10348;BME280;5220;43.192;23.284;2023-07-24T03:48:18;97077.69;;;21.77;100.00
10348;BME280;5220;43.192;23.284;2023-07-24T03:50:44;97083.09;;;21.83;100.00
10348;BME280;5220;43.192;23.284;2023-07-24T03:53:11;97084.06;;;21.90;100.00
10348;BME280;5220;43.192;23.284;2023-07-24T03:55:38;97077.56;;;21.93;100.00
10348;BME280;5220;43.192;23.284;2023-07-24T03:58:04;97080.69;;;21.96;100.00
10348;BME280;5220;43.192;23.284;2023-07-24T04:00:33;97072.13;;;21.94;100.00
10348;BME280;5220;43.192;23.284;2023-07-24T04:02:59;97071.19;;;22.02;99.77
10348;BME280;5220;43.192;23.284;2023-07-24T04:05:26;97080.09;;;22.09;98.82
10348;BME280;5220;43.192;23.284;2023-07-24T04:07:54;97078.72;;;22.13;100.00
10348;BME280;5220;43.192;23.284;2023-07-24T04:10:21;97074.16;;;22.22;100.00
10348;BME280;5220;43.192;23.284;2023-07-24T04:12:47;97074.78;;;22.24;100.00
10348;BME280;5220;43.192;23.284;2023-07-24T04:15:14;97073.91;;;22.31;100.00
10348;BME280;5220;43.192;23.284;2023-07-24T04:17:42;97072.53;;;22.35;98.86
10348;BME280;5220;43.192;23.284;2023-07-24T04:20:09;97075.09;;;22.43;100.00
10348;BME280;5220;43.192;23.284;2023-07-24T04:22:36;97076.81;;;22.51;100.00
10348;BME280;5220;43.192;23.284;2023-07-24T04:25:04;97083.03;;;22.58;100.00
10348;BME280;5220;43.192;23.284;2023-07-24T04:27:30;97070.84;;;22.64;100.00
10348;BME280;5220;43.192;23.284;2023-07-24T04:29:57;97072.19;;;22.68;100.00
10348;BME280;5220;43.192;23.284;2023-07-24T04:32:26;97066.88;;;22.68;100.00
10348;BME280;5220;43.192;23.284;2023-07-24T04:34:54;97072.72;;;22.78;100.00
10348;BME280;5220;43.192;23.284;2023-07-24T04:37:20;97075.63;;;22.83;100.00
10348;BME280;5220;43.192;23.284;2023-07-24T04:39:47;97068.31;;;22.85;100.00
10348;BME280;5220;43.192;23.284;2023-07-24T04:42:14;97076.38;;;22.91;100.00
10348;BME280;5220;43.192;23.284;2023-07-24T04:44:40;97076.00;;;22.94;100.00
10348;BME280;5220;43.192;23.284;2023-07-24T04:47:07;97071.94;;;22.98;100.00
10348;BME280;5220;43.192;23.284;2023-07-24T04:52:02;97075.69;;;23.04;100.00
10348;BME280;5220;43.192;23.284;2023-07-24T04:54:29;97079.16;;;23.04;100.00
10348;BME280;5220;43.192;23.284;2023-07-24T04:56:55;97086.28;;;23.04;100.00
10348;BME280;5220;43.192;23.284;2023-07-24T04:59:22;97081.72;;;23.13;100.00
10348;BME280;5220;43.192;23.284;2023-07-24T05:01:49;97077.81;;;23.44;100.00
10348;BME280;5220;43.192;23.284;2023-07-24T05:04:16;97088.41;;;23.87;100.00
10348;BME280;5220;43.192;23.284;2023-07-24T05:06:42;97089.63;;;24.33;100.00
10348;BME280;5220;43.192;23.284;2023-07-24T05:09:11;97087.69;;;24.83;100.00
10348;BME280;5220;43.192;23.284;2023-07-24T05:11:37;97086.66;;;25.31;100.00
10348;BME280;5220;43.192;23.284;2023-07-24T05:14:04;97092.06;;;25.71;100.00
10348;BME280;5220;43.192;23.284;2023-07-24T05:16:31;97085.72;;;25.98;98.92
10348;BME280;5220;43.192;23.284;2023-07-24T05:18:57;97092.28;;;26.41;94.92
10348;BME280;5220;43.192;23.284;2023-07-24T05:21:24;97090.78;;;26.85;91.88
10348;BME280;5220;43.192;23.284;2023-07-24T05:23:51;97092.88;;;27.27;85.88
10348;BME280;5220;43.192;23.284;2023-07-24T05:26:19;97094.59;;;27.53;70.24
10348;BME280;5220;43.192;23.284;2023-07-24T05:28:47;97086.53;;;27.91;69.44
10348;BME280;5220;43.192;23.284;2023-07-24T05:31:14;97088.50;;;28.33;67.18
10348;BME280;5220;43.192;23.284;2023-07-24T05:33:40;97084.22;;;28.68;68.77
10348;BME280;5220;43.192;23.284;2023-07-24T05:36:07;97086.69;;;29.06;66.32
10348;BME280;5220;43.192;23.284;2023-07-24T05:38:34;97093.19;;;29.47;60.87
10348;BME280;5220;43.192;23.284;2023-07-24T05:41:02;97088.56;;;29.83;57.91
10348;BME280;5220;43.192;23.284;2023-07-24T05:43:31;97086.75;;;30.30;55.81
10348;BME280;5220;43.192;23.284;2023-07-24T05:45:58;97081.50;;;30.70;53.32
10348;BME280;5220;43.192;23.284;2023-07-24T05:48:25;97084.28;;;31.10;51.28
10348;BME280;5220;43.192;23.284;2023-07-24T05:50:52;97078.19;;;31.43;47.66
10348;BME280;5220;43.192;23.284;2023-07-24T05:53:19;97078.78;;;31.73;46.11
10348;BME280;5220;43.192;23.284;2023-07-24T05:55:46;97079.81;;;32.01;47.09
10348;BME280;5220;43.192;23.284;2023-07-24T05:58:12;97080.59;;;32.01;44.17
10348;BME280;5220;43.192;23.284;2023-07-24T06:00:40;97081.56;;;31.95;44.65
10348;BME280;5220;43.192;23.284;2023-07-24T06:03:07;97088.88;;;31.66;43.12
10348;BME280;5220;43.192;23.284;2023-07-24T06:05:34;97075.66;;;31.36;44.02
10348;BME280;5220;43.192;23.284;2023-07-24T06:08:00;97085.22;;;30.92;43.15
10348;BME280;5220;43.192;23.284;2023-07-24T06:10:27;97085.59;;;30.61;43.81
10348;BME280;5220;43.192;23.284;2023-07-24T06:12:54;97085.09;;;30.06;43.29
10348;BME280;5220;43.192;23.284;2023-07-24T06:15:21;97077.88;;;29.65;44.79
10348;BME280;5220;43.192;23.284;2023-07-24T06:17:49;97079.84;;;29.28;45.33
10348;BME280;5220;43.192;23.284;2023-07-24T06:20:16;97076.13;;;28.93;47.38
10348;BME280;5220;43.192;23.284;2023-07-24T06:22:42;97072.19;;;28.77;50.09
10348;BME280;5220;43.192;23.284;2023-07-24T06:25:09;97066.97;;;28.64;52.80
10348;BME280;5220;43.192;23.284;2023-07-24T06:27:36;97068.56;;;28.47;52.69
10348;BME280;5220;43.192;23.284;2023-07-24T06:30:03;97068.44;;;28.42;58.96
10348;BME280;5220;43.192;23.284;2023-07-24T06:32:30;97074.16;;;28.21;59.60
10348;BME280;5220;43.192;23.284;2023-07-24T06:34:58;97071.94;;;28.18;57.56
10348;BME280;5220;43.192;23.284;2023-07-24T06:37:25;97064.72;;;28.18;56.97
10348;BME280;5220;43.192;23.284;2023-07-24T06:39:51;97058.34;;;28.19;61.12
10348;BME280;5220;43.192;23.284;2023-07-24T06:42:18;97054.25;;;28.17;63.52
10348;BME280;5220;43.192;23.284;2023-07-24T06:44:45;97054.47;;;28.15;61.67
10348;BME280;5220;43.192;23.284;2023-07-24T06:47:12;97051.72;;;28.22;65.57
10348;BME280;5220;43.192;23.284;2023-07-24T06:49:38;97050.84;;;28.03;66.19
10348;BME280;5220;43.192;23.284;2023-07-24T06:52:07;97046.69;;;28.14;68.19
10348;BME280;5220;43.192;23.284;2023-07-24T06:54:33;97055.44;;;28.21;60.42
10348;BME280;5220;43.192;23.284;2023-07-24T06:57:00;97043.88;;;28.27;65.58
10348;BME280;5220;43.192;23.284;2023-07-24T06:59:27;97045.56;;;28.40;69.34
10348;BME280;5220;43.192;23.284;2023-07-24T07:01:53;97043.84;;;28.52;63.18
10348;BME280;5220;43.192;23.284;2023-07-24T07:04:20;97044.94;;;28.62;60.84
10348;BME280;5220;43.192;23.284;2023-07-24T07:06:47;97038.75;;;28.62;62.38
10348;BME280;5220;43.192;23.284;2023-07-24T07:09:15;97046.38;;;28.65;61.46
10348;BME280;5220;43.192;23.284;2023-07-24T07:11:42;97032.75;;;28.48;60.58
10348;BME280;5220;43.192;23.284;2023-07-24T07:14:10;97040.84;;;28.60;62.19
10348;BME280;5220;43.192;23.284;2023-07-24T07:16:38;97034.84;;;28.64;70.77
10348;BME280;5220;43.192;23.284;2023-07-24T07:19:04;97023.41;;;28.75;69.65
10348;BME280;5220;43.192;23.284;2023-07-24T07:21:31;97033.50;;;28.92;62.38
10348;BME280;5220;43.192;23.284;2023-07-24T07:23:58;97027.81;;;29.00;68.64
10348;BME280;5220;43.192;23.284;2023-07-24T07:26:26;97024.50;;;28.86;59.18
10348;BME280;5220;43.192;23.284;2023-07-24T07:28:54;97027.88;;;29.11;59.73
10348;BME280;5220;43.192;23.284;2023-07-24T07:31:21;97024.66;;;29.21;61.47
10348;BME280;5220;43.192;23.284;2023-07-24T07:33:48;97020.31;;;29.38;57.73
10348;BME280;5220;43.192;23.284;2023-07-24T07:36:14;97025.03;;;29.54;55.06
10348;BME280;5220;43.192;23.284;2023-07-24T07:38:43;97021.34;;;29.67;53.69
10348;BME280;5220;43.192;23.284;2023-07-24T07:41:09;97020.31;;;29.79;52.31
10348;BME280;5220;43.192;23.284;2023-07-24T07:43:37;97016.84;;;29.91;52.53
10348;BME280;5220;43.192;23.284;2023-07-24T07:46:04;97018.13;;;30.00;50.74
10348;BME280;5220;43.192;23.284;2023-07-24T07:48:31;97015.09;;;30.08;50.75
10348;BME280;5220;43.192;23.284;2023-07-24T07:50:58;97025.13;;;30.12;47.94
10348;BME280;5220;43.192;23.284;2023-07-24T07:53:24;97021.75;;;30.17;48.85
10348;BME280;5220;43.192;23.284;2023-07-24T07:55:57;97025.13;;;30.24;46.19
10348;BME280;5220;43.192;23.284;2023-07-24T07:58:25;97015.22;;;30.13;45.00
10348;BME280;5220;43.192;23.284;2023-07-24T08:00:53;97023.03;;;30.14;42.57
10348;BME280;5220;43.192;23.284;2023-07-24T08:03:19;97018.13;;;30.11;45.05
10348;BME280;5220;43.192;23.284;2023-07-24T08:05:46;97008.81;;;30.25;45.91
10348;BME280;5220;43.192;23.284;2023-07-24T08:08:13;97007.16;;;30.13;46.61
10348;BME280;5220;43.192;23.284;2023-07-24T08:10:40;97013.47;;;30.18;47.33
10348;BME280;5220;43.192;23.284;2023-07-24T08:13:07;97007.88;;;30.31;48.50
10348;BME280;5220;43.192;23.284;2023-07-24T08:15:34;97009.59;;;30.37;48.63
10348;BME280;5220;43.192;23.284;2023-07-24T08:18:03;97004.38;;;30.43;48.08
10348;BME280;5220;43.192;23.284;2023-07-24T08:20:30;97005.41;;;30.53;47.82
10348;BME280;5220;43.192;23.284;2023-07-24T08:22:57;97007.03;;;30.66;49.86
10348;BME280;5220;43.192;23.284;2023-07-24T08:25:24;97005.16;;;30.66;49.29
10348;BME280;5220;43.192;23.284;2023-07-24T08:27:50;97008.50;;;30.73;50.53
10348;BME280;5220;43.192;23.284;2023-07-24T08:30:18;96999.63;;;30.84;50.75
10348;BME280;5220;43.192;23.284;2023-07-24T08:32:44;96998.31;;;30.87;52.33
10348;BME280;5220;43.192;23.284;2023-07-24T08:35:13;96998.44;;;30.80;52.91
10348;BME280;5220;43.192;23.284;2023-07-24T08:37:42;97008.28;;;30.75;53.96
10348;BME280;5220;43.192;23.284;2023-07-24T08:40:10;96997.28;;;30.76;53.65
10348;BME280;5220;43.192;23.284;2023-07-24T08:42:38;96995.41;;;30.88;55.45
10348;BME280;5220;43.192;23.284;2023-07-24T08:45:09;96992.13;;;30.86;53.63
10348;BME280;5220;43.192;23.284;2023-07-24T08:47:38;96992.81;;;30.93;54.03
10348;BME280;5220;43.192;23.284;2023-07-24T08:50:07;96993.53;;;31.01;55.05
10348;BME280;5220;43.192;23.284;2023-07-24T08:52:38;96994.09;;;31.03;55.68
10348;BME280;5220;43.192;23.284;2023-07-24T08:55:06;96991.13;;;31.16;57.63
10348;BME280;5220;43.192;23.284;2023-07-24T08:57:32;96984.22;;;31.20;54.42
10348;BME280;5220;43.192;23.284;2023-07-24T08:59:59;96987.19;;;31.23;55.91
10348;BME280;5220;43.192;23.284;2023-07-24T09:02:30;96991.06;;;31.27;52.96
10348;BME280;5220;43.192;23.284;2023-07-24T09:04:57;96996.28;;;31.34;52.94
10348;BME280;5220;43.192;23.284;2023-07-24T09:07:24;96987.25;;;31.40;54.25
10348;BME280;5220;43.192;23.284;2023-07-24T09:09:52;96989.78;;;31.47;54.37
10348;BME280;5220;43.192;23.284;2023-07-24T09:12:19;96993.78;;;31.44;52.00
10348;BME280;5220;43.192;23.284;2023-07-24T09:14:45;96983.84;;;31.44;53.16
10348;BME280;5220;43.192;23.284;2023-07-24T09:17:13;96980.66;;;31.48;55.89
10348;BME280;5220;43.192;23.284;2023-07-24T09:19:40;96989.19;;;31.56;56.15
10348;BME280;5220;43.192;23.284;2023-07-24T09:22:10;96990.81;;;31.57;54.73
10348;BME280;5220;43.192;23.284;2023-07-24T09:24:38;96991.53;;;31.53;56.55
10348;BME280;5220;43.192;23.284;2023-07-24T09:27:06;96978.75;;;31.48;56.73
10348;BME280;5220;43.192;23.284;2023-07-24T09:29:34;96983.69;;;31.51;58.80
10348;BME280;5220;43.192;23.284;2023-07-24T09:32:00;96982.16;;;31.55;58.31
10348;BME280;5220;43.192;23.284;2023-07-24T09:34:28;96981.38;;;31.43;60.01
10348;BME280;5220;43.192;23.284;2023-07-24T09:36:55;96982.84;;;31.34;61.82
10348;BME280;5220;43.192;23.284;2023-07-24T09:39:25;96985.69;;;31.27;64.81
10348;BME280;5220;43.192;23.284;2023-07-24T09:41:53;96983.13;;;31.21;63.62
10348;BME280;5220;43.192;23.284;2023-07-24T09:44:21;96975.88;;;31.21;65.54
10348;BME280;5220;43.192;23.284;2023-07-24T09:46:51;96972.66;;;31.36;65.55
10348;BME280;5220;43.192;23.284;2023-07-24T09:49:18;96971.53;;;31.32;65.90
10348;BME280;5220;43.192;23.284;2023-07-24T09:51:47;96962.81;;;31.41;67.46
10348;BME280;5220;43.192;23.284;2023-07-24T09:54:21;96967.56;;;31.51;66.37
10348;BME280;5220;43.192;23.284;2023-07-24T09:56:50;96967.31;;;31.53;67.87
10348;BME280;5220;43.192;23.284;2023-07-24T09:59:18;96967.22;;;31.48;70.26
10348;BME280;5220;43.192;23.284;2023-07-24T10:01:47;96964.31;;;31.49;63.83
10348;BME280;5220;43.192;23.284;2023-07-24T10:04:15;96967.22;;;31.48;63.18
10348;BME280;5220;43.192;23.284;2023-07-24T10:06:43;96966.91;;;31.61;64.54
10348;BME280;5220;43.192;23.284;2023-07-24T10:09:11;96964.31;;;31.66;61.04
10348;BME280;5220;43.192;23.284;2023-07-24T10:11:38;96963.00;;;31.68;58.52
10348;BME280;5220;43.192;23.284;2023-07-24T10:14:04;96971.00;;;31.63;60.80
10348;BME280;5220;43.192;23.284;2023-07-24T10:16:32;96966.59;;;31.57;60.97
10348;BME280;5220;43.192;23.284;2023-07-24T10:19:00;96967.56;;;31.68;55.57
10348;BME280;5220;43.192;23.284;2023-07-24T10:21:27;96964.50;;;31.76;59.06
10348;BME280;5220;43.192;23.284;2023-07-24T10:23:54;96960.06;;;31.86;58.94
10348;BME280;5220;43.192;23.284;2023-07-24T10:26:24;96958.56;;;31.95;53.17
10348;BME280;5220;43.192;23.284;2023-07-24T10:28:52;96957.69;;;31.90;51.83
10348;BME280;5220;43.192;23.284;2023-07-24T10:31:21;96963.50;;;31.82;50.37
10348;BME280;5220;43.192;23.284;2023-07-24T10:33:48;96953.47;;;31.94;52.03
10348;BME280;5220;43.192;23.284;2023-07-24T10:36:19;96948.81;;;31.89;50.01
10348;BME280;5220;43.192;23.284;2023-07-24T10:38:52;96951.59;;;31.94;47.46
10348;BME280;5220;43.192;23.284;2023-07-24T10:41:19;96940.81;;;31.94;49.14
10348;BME280;5220;43.192;23.284;2023-07-24T10:43:47;96946.34;;;32.05;48.60
10348;BME280;5220;43.192;23.284;2023-07-24T10:46:15;96942.84;;;32.04;52.14
10348;BME280;5220;43.192;23.284;2023-07-24T10:48:43;96951.66;;;32.16;50.40
10348;BME280;5220;43.192;23.284;2023-07-24T10:51:10;96942.00;;;32.20;50.21
10348;BME280;5220;43.192;23.284;2023-07-24T10:53:43;96933.88;;;32.15;48.00
10348;BME280;5220;43.192;23.284;2023-07-24T10:56:11;96932.09;;;32.26;48.25
10348;BME280;5220;43.192;23.284;2023-07-24T10:58:37;96936.53;;;32.32;47.86
10348;BME280;5220;43.192;23.284;2023-07-24T11:01:05;96925.28;;;32.18;46.66
10348;BME280;5220;43.192;23.284;2023-07-24T11:03:32;96922.75;;;32.28;47.81
10348;BME280;5220;43.192;23.284;2023-07-24T11:06:02;96919.06;;;32.34;47.48
10348;BME280;5220;43.192;23.284;2023-07-24T11:08:29;96918.53;;;32.37;49.62
10348;BME280;5220;43.192;23.284;2023-07-24T11:10:58;96918.22;;;32.34;47.65
10348;BME280;5220;43.192;23.284;2023-07-24T11:13:27;96917.34;;;32.28;48.35
10348;BME280;5220;43.192;23.284;2023-07-24T11:15:55;96906.69;;;32.38;48.84
10348;BME280;5220;43.192;23.284;2023-07-24T11:18:22;96902.38;;;32.37;47.45
10348;BME280;5220;43.192;23.284;2023-07-24T11:20:53;96911.38;;;32.26;49.44
10348;BME280;5220;43.192;23.284;2023-07-24T11:23:20;96907.69;;;32.32;48.00
10348;BME280;5220;43.192;23.284;2023-07-24T11:25:49;96908.31;;;32.39;49.15
10348;BME280;5220;43.192;23.284;2023-07-24T11:28:18;96900.28;;;32.44;47.94
10348;BME280;5220;43.192;23.284;2023-07-24T11:30:45;96903.06;;;32.49;44.32
10348;BME280;5220;43.192;23.284;2023-07-24T11:33:14;96900.28;;;32.44;45.40
10348;BME280;5220;43.192;23.284;2023-07-24T11:35:42;96890.53;;;32.60;44.50
10348;BME280;5220;43.192;23.284;2023-07-24T11:38:09;96896.91;;;32.54;44.24
10348;BME280;5220;43.192;23.284;2023-07-24T11:40:37;96895.66;;;32.57;42.98
10348;BME280;5220;43.192;23.284;2023-07-24T11:43:04;96899.72;;;32.59;41.05
10348;BME280;5220;43.192;23.284;2023-07-24T11:45:41;96890.97;;;32.52;41.80
10348;BME280;5220;43.192;23.284;2023-07-24T11:48:09;96888.44;;;32.62;42.29
10348;BME280;5220;43.192;23.284;2023-07-24T11:50:41;96887.59;;;32.40;41.75
10348;BME280;5220;43.192;23.284;2023-07-24T11:53:18;96886.03;;;32.44;40.75
10348;BME280;5220;43.192;23.284;2023-07-24T11:55:45;96879.66;;;32.07;41.35
10348;BME280;5220;43.192;23.284;2023-07-24T11:58:14;96883.63;;;32.26;41.77
10348;BME280;5220;43.192;23.284;2023-07-24T12:00:43;96875.78;;;32.41;40.30
10348;BME280;5220;43.192;23.284;2023-07-24T12:03:10;96871.91;;;32.32;40.21
10348;BME280;5220;43.192;23.284;2023-07-24T12:05:40;96874.38;;;32.38;41.89
10348;BME280;5220;43.192;23.284;2023-07-24T12:08:07;96873.69;;;32.48;41.03
10348;BME280;5220;43.192;23.284;2023-07-24T12:10:36;96877.88;;;32.61;39.37
10348;BME280;5220;43.192;23.284;2023-07-24T12:13:03;96882.25;;;32.67;39.97
10348;BME280;5220;43.192;23.284;2023-07-24T12:15:31;96878.97;;;32.38;39.93
10348;BME280;5220;43.192;23.284;2023-07-24T12:17:59;96876.53;;;32.58;41.19
10348;BME280;5220;43.192;23.284;2023-07-24T12:20:27;96879.03;;;32.65;39.21
10348;BME280;5220;43.192;23.284;2023-07-24T12:22:54;96870.63;;;32.61;41.88
10348;BME280;5220;43.192;23.284;2023-07-24T12:25:21;96880.19;;;32.52;41.03
10348;BME280;5220;43.192;23.284;2023-07-24T12:27:48;96866.06;;;32.62;39.64
10348;BME280;5220;43.192;23.284;2023-07-24T12:30:15;96864.34;;;32.77;40.95
10348;BME280;5220;43.192;23.284;2023-07-24T12:32:41;96864.28;;;32.72;41.07
10348;BME280;5220;43.192;23.284;2023-07-24T12:35:10;96865.41;;;32.55;45.81
10348;BME280;5220;43.192;23.284;2023-07-24T12:37:37;96869.97;;;32.54;42.07
10348;BME280;5220;43.192;23.284;2023-07-24T12:40:06;96861.03;;;32.48;41.35
10348;BME280;5220;43.192;23.284;2023-07-24T12:42:33;96864.19;;;32.62;41.47
10348;BME280;5220;43.192;23.284;2023-07-24T12:45:00;96848.84;;;32.63;41.90
10348;BME280;5220;43.192;23.284;2023-07-24T12:47:28;96846.13;;;32.63;42.85
10348;BME280;5220;43.192;23.284;2023-07-24T12:49:54;96849.44;;;32.70;43.55
10348;BME280;5220;43.192;23.284;2023-07-24T12:52:24;96844.09;;;32.75;42.04
10348;BME280;5220;43.192;23.284;2023-07-24T12:54:51;96842.25;;;32.80;42.85
10348;BME280;5220;43.192;23.284;2023-07-24T12:57:18;96839.88;;;32.84;43.05
10348;BME280;5220;43.192;23.284;2023-07-24T12:59:44;96840.44;;;32.86;41.61
10348;BME280;5220;43.192;23.284;2023-07-24T13:02:11;96836.22;;;32.68;42.88
10348;BME280;5220;43.192;23.284;2023-07-24T13:04:38;96839.06;;;32.83;41.88